»·PEaware :: N20791 8W5-KYKM

N20791 :: 8W5-KYKM

FLIGHT INFORMATION

Flight Status: Arrived
Operator: Privately registered:
United States
More flights under this callsign
Pilot: Russell T. (852)
Aircraft: CESSNA 182 SKYLANE
(C182)
More flights by this aircraft type
Origin: 8W5 Apex Airpark
United States
Destination: KYKM Yakima Air Term/Mcallister
United States
More flights between these airports :: More routes between these airports
Route: KPWT SEA V4 KYKM
File this flight plan on PilotEdge
Remarks:
Altitude:
(Current/Filed)
2,000ft
Speed:
(Current/Filed)
120kts
Departed: 21-May-20 07:54 PM
Arrived: 21-May-20 09:01 PM
Distance/Time
Traveled:
110nm/1:06
Distance/Time
To Go:
Arrived

Flight Plot

Page will automatically refresh every two minutes.


Map Options




Map Legend


Flown Route
Filed Route
Departure Airport
Arrival Airport
Navaid (VOR, NDB)
Fix

Horizontal Profiles

Position Reports

Time Latitude Longitude Heading Altitude Ground
Speed
21-May-20 19:48 47.653927 -122.733936 3 528ft 0kts
21-May-20 19:49 47.653927 -122.733936 3 528ft 0kts
21-May-20 19:50 47.653927 -122.733936 3 528ft 0kts
21-May-20 19:51 47.653928 -122.733935 3 528ft 0kts
21-May-20 19:52 47.653929 -122.733935 3 528ft 0kts
21-May-20 19:53 47.667055 -122.732670 353 1028ft 75kts
21-May-20 19:54 47.686508 -122.747940 260 1738ft 125kts
21-May-20 19:55 47.655276 -122.770403 178 2425ft 136kts
21-May-20 19:56 47.619056 -122.755011 160 3117ft 135kts
21-May-20 19:57 47.585063 -122.719918 138 2688ft 171kts
21-May-20 19:59 47.540381 -122.692611 181 1707ft 178kts
21-May-20 20:00 47.500191 -122.729340 180 753ft 175kts
21-May-20 20:01 47.481767 -122.683283 61 1281ft 136kts
21-May-20 20:02 47.511897 -122.656048 5 1979ft 131kts
21-May-20 20:03 47.546509 -122.678388 300 1994ft 152kts
21-May-20 20:04 47.548117 -122.740091 240 1995ft 158kts
21-May-20 20:05 47.524425 -122.792429 237 2264ft 152kts
21-May-20 20:06 47.491046 -122.806021 122 2306ft 154kts
21-May-20 20:07 47.488038 -122.744353 98 2012ft 159kts
21-May-20 20:08 47.481237 -122.688833 97 1997ft 117kts
21-May-20 20:09 47.475777 -122.643160 97 1999ft 110kts
21-May-20 20:10 47.470637 -122.600254 96 2246ft 87kts
21-May-20 20:11 47.466551 -122.565945 96 2491ft 103kts
21-May-20 20:12 47.461118 -122.520225 96 2477ft 114kts
21-May-20 20:13 47.457353 -122.475463 91 2475ft 108kts
21-May-20 20:14 47.454785 -122.430154 89 2478ft 108kts
21-May-20 20:15 47.455405 -122.386290 82 2478ft 105kts
21-May-20 20:16 47.457886 -122.343354 82 2483ft 107kts
21-May-20 20:17 47.460828 -122.297485 79 2490ft 114kts
21-May-20 20:17 47.446667 -122.270208 163 2486ft 117kts
21-May-20 20:19 47.409656 -122.248310 130 2468ft 127kts
21-May-20 20:20 47.390849 -122.210278 119 2476ft 107kts
21-May-20 20:20 47.377247 -122.180147 119 2480ft 105kts
21-May-20 20:21 47.363964 -122.150830 116 3129ft 74kts
21-May-20 20:22 47.351854 -122.123776 122 3625ft 98kts
21-May-20 20:23 47.336773 -122.090465 123 4409ft 92kts
21-May-20 20:24 47.319024 -122.051235 123 4509ft 132kts
21-May-20 20:25 47.297771 -122.004289 123 4507ft 139kts
21-May-20 20:26 47.276067 -121.956440 123 4506ft 140kts
21-May-20 20:27 47.255341 -121.910854 123 4970ft 121kts
21-May-20 20:28 47.238702 -121.874308 123 5961ft 100kts
21-May-20 20:29 47.223810 -121.841640 123 6963ft 91kts
21-May-20 20:30 47.208253 -121.806762 122 7642ft 110kts
21-May-20 20:31 47.190970 -121.768503 122 8440ft 108kts
21-May-20 20:32 47.172957 -121.728955 122 8683ft 144kts
21-May-20 20:33 47.149959 -121.678754 122 8875ft 129kts
21-May-20 20:34 47.131935 -121.639518 122 9514ft 129kts
21-May-20 20:35 47.109947 -121.591662 123 9508ft 148kts
21-May-20 20:36 47.086485 -121.540699 123 9506ft 152kts
21-May-20 20:37 47.062765 -121.489293 123 9506ft 152kts
21-May-20 20:38 47.039094 -121.438067 123 9499ft 149kts
21-May-20 20:39 47.015940 -121.388121 123 9503ft 147kts
21-May-20 20:40 46.992888 -121.338435 123 9506ft 147kts
21-May-20 20:41 46.969728 -121.288637 123 9506ft 147kts
21-May-20 20:42 46.946571 -121.238902 123 9506ft 147kts
21-May-20 20:43 46.923408 -121.189256 124 9506ft 147kts
21-May-20 20:44 46.899830 -121.139932 124 9506ft 148kts
21-May-20 20:45 46.876587 -121.090286 124 9506ft 148kts
21-May-20 20:46 46.853284 -121.040757 124 9506ft 148kts
21-May-20 20:47 46.829944 -120.991233 124 9506ft 148kts
21-May-20 20:48 46.806609 -120.941675 124 9505ft 148kts
21-May-20 20:49 46.783376 -120.892091 123 9506ft 148kts
21-May-20 20:50 46.758366 -120.839253 124 8706ft 163kts
21-May-20 20:51 46.732571 -120.784596 123 7808ft 163kts
21-May-20 20:52 46.706892 -120.730146 123 6906ft 163kts
21-May-20 20:53 46.680931 -120.675869 124 6003ft 162kts
21-May-20 20:54 46.655328 -120.622366 124 5099ft 159kts
21-May-20 20:55 46.630819 -120.570995 124 4033ft 153kts
21-May-20 20:56 46.607315 -120.519342 123 2554ft 150kts
21-May-20 20:57 46.580286 -120.473527 139 2099ft 140kts
21-May-20 20:58 46.545277 -120.469657 239 1736ft 153kts
21-May-20 20:59 46.561022 -120.513154 283 1553ft 135kts
21-May-20 21:00 46.569112 -120.545818 289 1098ft 33kts
21-May-20 21:01 46.570707 -120.547641 107 1098ft 0kts
21-May-20 21:02 46.570707 -120.547639 107 1098ft 0kts
21-May-20 21:03 46.570706 -120.547637 107 1098ft 0kts
21-May-20 21:04 46.570706 -120.547635 107 1098ft 0kts
21-May-20 21:05 46.570706 -120.547634 107 1098ft 0kts
21-May-20 21:06 46.570705 -120.547632 107 1098ft 0kts
21-May-20 21:07 46.570705 -120.547631 107 1098ft 0kts
21-May-20 21:08 46.570705 -120.547629 107 1098ft 0kts
21-May-20 21:09 46.570704 -120.547628 107 1098ft 0kts
21-May-20 21:10 46.570704 -120.547626 107 1098ft 0kts
21-May-20 21:11 46.570704 -120.547625 107 1098ft 0kts
21-May-20 21:12 46.570703 -120.547623 107 1098ft 0kts
21-May-20 21:13 46.570703 -120.547621 107 1098ft 0kts
21-May-20 21:14 46.570703 -120.547620 107 1098ft 0kts

Navigation Log

Ident Type
Flight plan parsing failed, navigation log unavailable